Archival Weather

Chicago O'Hare International

Chicago, Illinois (KORD)

Report from: Tuesday, May 2, 2023 4:51 AM CDT
Current time: Sunday, February 25, 2024 3:15 PM CST

Current weather – Weather history – Daily summaries
Weather forecast

Temperature5.6°C (42.1°F)
Wind chill1.8°C (35.2°F)
Dew point-0.6°C (30.9°F)
Winds 11 kts (5.7 m/s, 12.7 mph) Northwest (310°)
Visibility10 mi. (16.1 km)
Clouds Ceiling: Broken clouds 3,500 ft. (1,067 m)
Broken clouds 11,000 ft. (3,353 m)
Broken clouds 25,000 ft. (7,620 m)
Altimeter29.54 in.Hg (1000 mB)
Relative humidity64 %
Density altitude-616 ft. (-188 m)
Sea-level pressure100.1 kPa (1001 mB, 29.55 in.Hg)
Remarks Automated weather observing station with precipitation discriminator
Flight conditions Visual Meteorological Conditions
Raw dataKORD 020951Z 31011KT 10SM BKN035 BKN110 BKN250 06/M01 A2954 RMK AO2 SLP007 T00561006
An error has occurred. This application may no longer respond until reloaded. Reload 🗙